createdAt,value
2022-08-08T00:01:08.668Z,12.77
2022-08-08T00:03:49.498Z,12.94
2022-08-08T00:06:34.186Z,12.73
2022-08-08T00:09:16.141Z,12.75
2022-08-08T00:12:07.626Z,12.98
2022-08-08T00:14:59.311Z,13.08
2022-08-08T00:17:58.518Z,13.10
2022-08-08T00:20:37.427Z,13.03
2022-08-08T00:23:14.704Z,13.20
2022-08-08T00:25:51.228Z,13.20
2022-08-08T00:28:35.481Z,12.97
2022-08-08T00:32:28.252Z,13.03
2022-08-08T00:34:38.537Z,13.12
2022-08-08T00:37:47.332Z,13.12
2022-08-08T00:41:11.653Z,13.06
2022-08-08T00:44:08.518Z,13.16
2022-08-08T00:47:36.836Z,13.23
2022-08-08T00:50:33.379Z,12.95
2022-08-08T00:53:15.767Z,12.83
2022-08-08T00:56:12.957Z,12.77
2022-08-08T00:59:43.798Z,12.78
2022-08-08T01:03:58.407Z,12.85
2022-08-08T01:06:28.212Z,12.63
2022-08-08T01:09:35.061Z,12.46
2022-08-08T01:12:55.898Z,12.52
2022-08-08T01:16:20.595Z,12.55
2022-08-08T01:19:52.576Z,12.65
2022-08-08T01:22:47.142Z,12.63
2022-08-08T01:25:55.156Z,12.73
2022-08-08T01:29:15.999Z,12.72
2022-08-08T01:32:17.233Z,12.67
2022-08-08T01:35:16.006Z,12.69
2022-08-08T01:38:29.295Z,12.76
2022-08-08T01:41:11.709Z,12.73
2022-08-08T01:43:54.385Z,12.74
2022-08-08T01:46:47.288Z,12.73
2022-08-08T01:49:43.949Z,12.81
2022-08-08T01:53:03.947Z,12.86
2022-08-08T01:56:29.674Z,12.84
2022-08-08T01:58:39.757Z,12.82
2022-08-08T02:02:03.127Z,12.87
2022-08-08T02:04:46.814Z,12.93
2022-08-08T02:07:41.880Z,12.94
2022-08-08T02:10:37.171Z,12.88
2022-08-08T02:13:54.732Z,12.70
2022-08-08T02:16:20.973Z,12.79
2022-08-08T02:18:59.516Z,12.93
2022-08-08T02:22:00.227Z,13.03
2022-08-08T02:24:45.129Z,12.97
2022-08-08T02:27:19.789Z,12.98
2022-08-08T02:30:20.684Z,12.92
2022-08-08T02:33:21.377Z,12.63
2022-08-08T02:36:16.517Z,12.67
2022-08-08T02:39:42.281Z,12.77
2022-08-08T02:42:41.531Z,12.94
2022-08-08T02:45:56.678Z,13.13
2022-08-08T02:48:52.724Z,13.15
2022-08-08T02:51:59.813Z,13.09
2022-08-08T02:54:59.494Z,12.95
2022-08-08T02:58:16.910Z,13.00
2022-08-08T03:01:21.843Z,13.11
2022-08-08T03:05:04.758Z,13.22
2022-08-08T03:08:10.067Z,13.35
2022-08-08T03:11:25.679Z,13.29
2022-08-08T03:16:00.780Z,13.38
2022-08-08T03:17:39.131Z,13.46
2022-08-08T03:20:11.706Z,13.53
2022-08-08T03:22:55.890Z,13.53
2022-08-08T03:25:35.827Z,13.46
2022-08-08T03:28:12.662Z,13.52
2022-08-08T03:30:48.706Z,13.51
2022-08-08T03:33:55.430Z,13.47
2022-08-08T03:36:19.492Z,13.59
2022-08-08T03:38:56.694Z,13.49
2022-08-08T03:42:27.995Z,13.57
2022-08-08T03:44:34.839Z,13.66
2022-08-08T03:47:20.160Z,13.79
2022-08-08T03:49:59.629Z,13.87
2022-08-08T03:52:36.559Z,13.80
2022-08-08T03:55:20.428Z,14.05
2022-08-08T03:58:35.415Z,14.04
2022-08-08T04:01:25.944Z,13.86
2022-08-08T04:04:01.807Z,13.71
2022-08-08T04:06:56.958Z,13.64
2022-08-08T04:09:59.068Z,13.61
2022-08-08T04:12:23.570Z,13.61
2022-08-08T04:14:52.864Z,13.63
2022-08-08T04:17:58.237Z,13.72
2022-08-08T04:20:14.240Z,13.84
2022-08-08T04:22:43.547Z,13.87
2022-08-08T04:25:15.543Z,13.94
2022-08-08T04:28:35.303Z,13.95
2022-08-08T04:30:44.439Z,13.93
2022-08-08T04:33:15.783Z,13.94
2022-08-08T04:35:51.042Z,13.94
2022-08-08T04:38:22.303Z,13.97
2022-08-08T04:40:55.002Z,14.05
2022-08-08T04:43:32.046Z,14.07
2022-08-08T04:46:18.628Z,14.06
2022-08-08T04:48:49.899Z,14.10
2022-08-08T04:51:28.239Z,14.15
2022-08-08T04:54:38.954Z,14.23
2022-08-08T04:56:59.223Z,14.26
2022-08-08T04:59:30.128Z,14.31
2022-08-08T05:02:01.066Z,14.38
2022-08-08T05:04:30.291Z,14.49
2022-08-08T05:06:59.426Z,14.56
2022-08-08T05:09:28.428Z,14.62
2022-08-08T05:11:58.547Z,14.59
2022-08-08T05:14:33.445Z,14.64
2022-08-08T05:17:09.018Z,14.67
2022-08-08T05:20:10.532Z,14.64
2022-08-08T05:22:37.822Z,14.66
2022-08-08T05:25:07.851Z,14.63
2022-08-08T05:27:41.744Z,14.65
2022-08-08T05:30:16.783Z,14.72
2022-08-08T05:32:59.583Z,14.73
2022-08-08T05:35:36.145Z,14.71
2022-08-08T05:38:30.429Z,14.76
2022-08-08T05:41:12.460Z,14.78
2022-08-08T05:44:03.980Z,14.87
2022-08-08T05:46:38.010Z,14.93
2022-08-08T05:49:11.438Z,14.94
2022-08-08T05:51:48.974Z,14.97
2022-08-08T05:54:42.635Z,15.11
2022-08-08T05:57:59.573Z,15.15
2022-08-08T06:00:25.388Z,15.27
2022-08-08T06:03:23.685Z,15.42
2022-08-08T06:05:59.659Z,15.45
2022-08-08T06:08:34.604Z,15.54
2022-08-08T06:11:08.542Z,15.59
2022-08-08T06:13:55.623Z,15.61
2022-08-08T06:16:30.347Z,15.55
2022-08-08T06:19:17.064Z,15.51
2022-08-08T06:21:51.396Z,15.52
2022-08-08T06:24:30.504Z,15.57
2022-08-08T06:27:06.177Z,15.60
2022-08-08T06:29:56.636Z,15.57
2022-08-08T06:32:33.213Z,15.50
2022-08-08T06:36:03.827Z,15.51
2022-08-08T06:38:09.282Z,15.50
2022-08-08T06:40:48.564Z,15.49
2022-08-08T06:43:30.587Z,15.49
2022-08-08T06:46:09.157Z,15.57
2022-08-08T06:48:43.718Z,15.73
2022-08-08T06:51:17.082Z,15.79
2022-08-08T06:53:51.048Z,16.00
2022-08-08T06:56:33.125Z,16.11
2022-08-08T06:59:09.785Z,16.09
2022-08-08T07:02:26.323Z,16.17
2022-08-08T07:04:45.452Z,16.20
2022-08-08T07:07:31.796Z,16.33
2022-08-08T07:10:08.130Z,16.45
2022-08-08T07:12:47.844Z,16.36
2022-08-08T07:16:04.465Z,16.31
2022-08-08T07:18:41.109Z,16.42
2022-08-08T07:21:20.562Z,16.45
2022-08-08T07:24:09.418Z,16.56
2022-08-08T07:26:57.714Z,16.52
2022-08-08T07:30:00.870Z,16.46
2022-08-08T07:32:22.194Z,16.52
2022-08-08T07:35:00.513Z,16.72
2022-08-08T07:37:56.532Z,16.72
2022-08-08T07:40:32.404Z,16.86
2022-08-08T07:43:09.508Z,16.88
2022-08-08T07:46:04.912Z,16.87
2022-08-08T07:48:36.784Z,16.85
2022-08-08T07:51:07.397Z,16.98
2022-08-08T07:54:03.102Z,16.98
2022-08-08T07:56:49.430Z,16.90
2022-08-08T07:59:20.128Z,16.98
2022-08-08T08:02:35.489Z,16.97
2022-08-08T08:04:54.610Z,17.01
2022-08-08T08:07:38.693Z,17.11
2022-08-08T08:10:14.473Z,17.06
2022-08-08T08:12:54.211Z,17.08
2022-08-08T08:15:32.117Z,17.13
2022-08-08T08:18:06.708Z,17.21
2022-08-08T08:20:45.448Z,17.24
2022-08-08T08:33:11.130Z,17.37
2022-08-08T08:36:18.588Z,17.52
2022-08-08T08:38:33.209Z,17.61
2022-08-08T08:41:17.115Z,17.71
2022-08-08T08:43:50.869Z,17.83
2022-08-08T08:46:25.801Z,18.03
2022-08-08T08:48:58.907Z,18.01
2022-08-08T08:51:30.568Z,18.11
2022-08-08T08:54:04.419Z,18.13
2022-08-08T08:56:53.304Z,17.98
2022-08-08T08:59:57.487Z,17.75
2022-08-08T09:02:24.389Z,17.69
2022-08-08T09:05:00.819Z,17.66
2022-08-08T09:07:39.668Z,17.57
2022-08-08T09:10:28.234Z,17.65
2022-08-08T09:13:03.804Z,17.51
2022-08-08T09:15:41.049Z,17.51
2022-08-08T09:18:13.960Z,17.41
2022-08-08T09:21:58.543Z,17.44
2022-08-08T09:23:38.279Z,17.30
2022-08-08T09:26:19.430Z,17.36
2022-08-08T09:28:54.489Z,17.32
2022-08-08T09:31:57.101Z,17.31
2022-08-08T09:34:35.085Z,17.25
2022-08-08T09:37:51.393Z,17.36
2022-08-08T09:40:10.558Z,17.42
2022-08-08T09:42:44.400Z,17.54
2022-08-08T09:46:00.723Z,17.67
2022-08-08T09:48:21.297Z,17.62
2022-08-08T09:50:56.192Z,17.59
2022-08-08T09:53:59.166Z,17.71
2022-08-08T09:56:25.482Z,17.75
2022-08-08T09:59:20.186Z,17.80
2022-08-08T10:02:02.580Z,17.84
2022-08-08T10:04:41.304Z,17.70
2022-08-08T10:07:15.896Z,17.62
2022-08-08T10:10:00.301Z,17.87
2022-08-08T10:12:37.895Z,17.81
2022-08-08T10:15:17.402Z,17.85
2022-08-08T10:18:05.447Z,17.83
2022-08-08T10:20:57.450Z,17.92
2022-08-08T10:23:44.227Z,17.80
2022-08-08T10:26:30.013Z,17.76
2022-08-08T10:29:06.224Z,17.82
2022-08-08T10:31:55.127Z,17.51
2022-08-08T10:34:27.506Z,16.79
2022-08-08T10:36:59.802Z,16.10
2022-08-08T10:39:43.652Z,15.67
2022-08-08T10:42:21.739Z,15.34
2022-08-08T10:45:02.660Z,15.12
2022-08-08T10:47:43.655Z,14.95
2022-08-08T10:50:15.346Z,15.01
2022-08-08T10:52:45.036Z,14.84
2022-08-08T10:55:40.951Z,14.89
2022-08-08T10:58:09.096Z,15.14
2022-08-08T11:00:53.322Z,15.44
2022-08-08T11:04:00.888Z,15.76
2022-08-08T11:06:35.053Z,15.89
2022-08-08T11:09:09.761Z,16.06
2022-08-08T11:12:04.847Z,16.43
2022-08-08T11:14:36.890Z,16.34
2022-08-08T11:17:14.947Z,16.35
2022-08-08T11:19:46.651Z,16.54
2022-08-08T11:22:27.459Z,16.79
2022-08-08T11:25:01.451Z,16.93
2022-08-08T11:27:37.412Z,16.89
2022-08-08T11:30:24.159Z,16.84
2022-08-08T11:32:56.074Z,17.01
2022-08-08T11:35:38.621Z,16.88
2022-08-08T11:38:35.890Z,17.08
2022-08-08T11:41:04.770Z,17.04
2022-08-08T11:43:39.081Z,17.07
2022-08-08T11:46:13.514Z,17.12
2022-08-08T11:48:47.995Z,17.13
2022-08-08T11:51:29.975Z,17.17
2022-08-08T11:54:31.612Z,17.24
2022-08-08T11:57:17.214Z,17.16
2022-08-08T12:00:00.649Z,17.22
2022-08-08T12:02:51.315Z,17.12
2022-08-08T12:05:22.725Z,17.15
2022-08-08T12:07:56.013Z,17.21
2022-08-08T12:10:28.440Z,17.23
2022-08-08T12:13:09.752Z,17.23
2022-08-08T12:15:47.210Z,17.39
2022-08-08T12:18:21.215Z,17.41
2022-08-08T12:20:54.427Z,17.50
2022-08-08T12:23:30.600Z,17.56
2022-08-08T12:26:17.149Z,17.54
2022-08-08T12:28:57.325Z,17.66
2022-08-08T12:31:39.410Z,17.49
2022-08-08T12:34:38.779Z,17.50
2022-08-08T12:37:11.353Z,17.38
2022-08-08T12:40:00.537Z,17.26
2022-08-08T12:42:33.803Z,17.31
2022-08-08T12:45:54.197Z,17.41
2022-08-08T12:48:10.179Z,17.39
2022-08-08T12:50:49.641Z,17.36
2022-08-08T12:53:24.694Z,17.40
2022-08-08T12:56:17.673Z,17.32
2022-08-08T12:58:54.513Z,17.10
2022-08-08T13:01:36.816Z,17.08
2022-08-08T13:04:24.278Z,17.06
2022-08-08T13:07:05.101Z,16.92
2022-08-08T13:10:00.522Z,16.98
2022-08-08T13:12:30.180Z,17.04
2022-08-08T13:15:04.220Z,17.13
2022-08-08T13:18:09.181Z,17.13
2022-08-08T13:21:06.211Z,17.20
2022-08-08T13:23:41.244Z,17.23
2022-08-08T13:26:14.357Z,17.30
2022-08-08T13:28:45.937Z,17.32
2022-08-08T13:31:18.061Z,17.33
2022-08-08T13:33:50.151Z,17.34
2022-08-08T13:36:25.981Z,17.47
2022-08-08T13:39:00.587Z,17.38
2022-08-08T13:41:39.295Z,17.38
2022-08-08T13:44:14.426Z,17.42
2022-08-08T13:46:57.444Z,17.53
2022-08-08T13:50:36.015Z,17.47
2022-08-08T13:52:49.934Z,17.52
2022-08-08T13:55:28.824Z,17.52
2022-08-08T13:58:07.937Z,17.34
2022-08-08T14:00:46.094Z,17.26
2022-08-08T14:03:52.354Z,17.23
2022-08-08T14:06:33.503Z,17.14
2022-08-08T14:09:00.444Z,17.15
2022-08-08T14:11:49.608Z,17.18
2022-08-08T14:14:20.935Z,17.26
2022-08-08T14:16:57.447Z,17.37
2022-08-08T14:19:57.957Z,17.34
2022-08-08T14:22:26.344Z,17.32
2022-08-08T14:24:59.614Z,17.36
2022-08-08T14:27:33.316Z,17.34
2022-08-08T14:30:17.315Z,17.27
2022-08-08T14:32:53.062Z,17.33
2022-08-08T14:35:28.385Z,17.39
2022-08-08T14:38:34.199Z,17.45
2022-08-08T14:40:59.905Z,17.39
2022-08-08T14:44:02.248Z,17.46
2022-08-08T14:46:32.515Z,17.47
2022-08-08T14:49:09.315Z,17.59
2022-08-08T14:51:53.098Z,17.81
2022-08-08T14:54:28.598Z,17.81
2022-08-08T14:56:58.860Z,18.06
2022-08-08T14:59:44.300Z,17.87
2022-08-08T15:02:30.657Z,17.84
2022-08-08T15:05:08.023Z,17.71
2022-08-08T15:07:41.283Z,17.74
2022-08-08T15:10:13.206Z,17.57
2022-08-08T15:12:42.440Z,17.59
2022-08-08T15:15:18.652Z,17.53
2022-08-08T15:18:02.760Z,17.53
2022-08-08T15:20:31.594Z,17.53
2022-08-08T15:23:01.669Z,17.62
2022-08-08T15:25:32.990Z,17.50
2022-08-08T15:28:32.979Z,17.58
2022-08-08T15:30:51.890Z,17.39
2022-08-08T15:33:38.411Z,17.19
2022-08-08T15:36:10.032Z,17.20
2022-08-08T15:38:49.616Z,16.94
2022-08-08T15:41:24.540Z,16.74
2022-08-08T15:44:01.273Z,16.65
2022-08-08T15:46:35.104Z,16.69
2022-08-08T15:49:04.543Z,16.63
2022-08-08T15:51:34.306Z,16.71
2022-08-08T15:54:04.459Z,16.79
2022-08-08T15:56:34.622Z,16.80
2022-08-08T15:59:03.393Z,16.96
2022-08-08T16:01:40.973Z,17.00
2022-08-08T16:04:21.210Z,17.10
2022-08-08T16:06:58.860Z,17.17
2022-08-08T16:13:09.904Z,17.11
2022-08-08T16:13:11.482Z,17.17
2022-08-08T16:15:12.638Z,17.24
2022-08-08T16:18:05.907Z,17.23
2022-08-08T16:20:34.041Z,17.19
2022-08-08T16:23:02.918Z,17.18
2022-08-08T16:25:46.400Z,17.13
2022-08-08T16:28:34.758Z,17.08
2022-08-08T16:31:07.802Z,17.02
2022-08-08T16:33:40.456Z,16.98
2022-08-08T16:36:15.701Z,16.86
2022-08-08T16:38:47.598Z,16.95
2022-08-08T16:41:22.927Z,17.18
2022-08-08T16:43:54.458Z,17.22
2022-08-08T16:46:37.296Z,17.16
2022-08-08T16:49:12.754Z,17.10
2022-08-08T16:55:02.073Z,17.04
2022-08-08T16:55:05.804Z,17.08
2022-08-08T16:57:23.589Z,16.97
2022-08-08T17:00:14.203Z,16.97
2022-08-08T17:02:56.210Z,16.93
2022-08-08T17:05:24.919Z,16.95
2022-08-08T17:08:11.768Z,17.05
2022-08-08T17:10:57.923Z,17.10
2022-08-08T17:13:40.733Z,16.99
2022-08-08T17:16:15.361Z,16.96
2022-08-08T17:18:45.388Z,16.91
2022-08-08T17:21:14.387Z,16.91
2022-08-08T17:24:00.749Z,16.90
2022-08-08T17:26:31.619Z,16.90
2022-08-08T17:29:04.265Z,16.82
2022-08-08T17:31:44.894Z,16.72
2022-08-08T17:34:47.920Z,16.50
2022-08-08T17:37:09.288Z,16.43
2022-08-08T17:40:03.534Z,16.46
2022-08-08T17:42:29.728Z,16.56
2022-08-08T17:44:58.689Z,16.54
2022-08-08T17:47:40.401Z,16.46
2022-08-08T17:50:11.117Z,16.44
2022-08-08T17:52:43.002Z,16.35
2022-08-08T17:56:05.613Z,16.27
2022-08-08T17:58:02.214Z,16.27
2022-08-08T18:00:31.843Z,16.21
2022-08-08T18:03:08.252Z,16.18
2022-08-08T18:05:48.974Z,16.16
2022-08-08T18:08:38.386Z,16.16
2022-08-08T18:11:14.981Z,16.35
2022-08-08T18:13:46.168Z,16.41
2022-08-08T18:16:17.092Z,16.43
2022-08-08T18:18:56.378Z,16.51
2022-08-08T18:21:58.932Z,16.45
2022-08-08T18:24:19.011Z,16.40
2022-08-08T18:26:55.058Z,16.42
2022-08-08T18:29:29.663Z,16.38
2022-08-08T18:31:59.471Z,16.25
2022-08-08T18:34:29.724Z,16.26
2022-08-08T18:37:06.625Z,16.10
2022-08-08T18:39:41.944Z,15.88
2022-08-08T18:42:16.355Z,16.02
2022-08-08T18:44:55.151Z,15.92
2022-08-08T18:47:25.637Z,16.00
2022-08-08T18:49:57.581Z,15.97
2022-08-08T18:52:27.658Z,15.95
2022-08-08T18:54:59.322Z,15.87
2022-08-08T18:57:41.978Z,15.81
2022-08-08T19:00:16.517Z,15.82
2022-08-08T19:02:55.576Z,15.75
2022-08-08T19:05:32.375Z,15.63
2022-08-08T19:08:25.063Z,15.48
2022-08-08T19:11:01.594Z,15.32
2022-08-08T19:13:53.836Z,15.33
2022-08-08T19:16:21.608Z,15.31
2022-08-08T19:19:00.547Z,15.36
2022-08-08T19:21:49.794Z,15.31
2022-08-08T19:24:40.621Z,15.36
2022-08-08T19:27:10.712Z,15.33
2022-08-08T19:29:45.771Z,15.22
2022-08-08T19:32:19.604Z,15.02
2022-08-08T19:34:51.571Z,14.91
2022-08-08T19:37:43.845Z,14.92
2022-08-08T19:40:14.550Z,14.79
2022-08-08T19:42:45.188Z,15.00
2022-08-08T19:45:14.403Z,15.02
2022-08-08T19:48:02.854Z,14.89
2022-08-08T19:50:33.369Z,14.83
2022-08-08T19:53:04.677Z,14.80
2022-08-08T19:55:53.303Z,14.91
2022-08-08T19:58:24.028Z,14.80
2022-08-08T20:00:53.188Z,14.59
2022-08-08T20:04:01.263Z,14.57
2022-08-08T20:06:15.137Z,14.30
2022-08-08T20:08:48.136Z,14.30
2022-08-08T20:11:18.907Z,14.29
2022-08-08T20:14:32.311Z,14.23
2022-08-08T20:16:41.143Z,14.09
2022-08-08T20:19:10.168Z,14.16
2022-08-08T20:21:39.485Z,14.22
2022-08-08T20:24:10.734Z,13.81
2022-08-08T20:26:41.838Z,13.78
2022-08-08T20:29:16.405Z,13.76
2022-08-08T20:32:06.848Z,13.76
2022-08-08T20:34:33.908Z,13.38
2022-08-08T20:37:07.405Z,13.34
2022-08-08T20:39:41.629Z,13.42
2022-08-08T20:42:28.215Z,13.58
2022-08-08T20:44:59.248Z,13.70
2022-08-08T20:47:36.634Z,13.65
2022-08-08T20:50:10.058Z,13.66
2022-08-08T20:52:39.728Z,13.65
2022-08-08T20:55:22.742Z,13.64
2022-08-08T20:57:57.834Z,13.68
2022-08-08T21:00:28.126Z,13.70
2022-08-08T21:02:56.969Z,13.77
2022-08-08T21:05:31.802Z,13.68
2022-08-08T21:08:36.403Z,13.75
2022-08-08T21:10:51.441Z,13.75
2022-08-08T21:13:23.264Z,13.72
2022-08-08T21:16:06.145Z,13.71
2022-08-08T21:18:46.652Z,13.61
2022-08-08T21:21:19.628Z,13.57
2022-08-08T21:23:59.310Z,13.34
2022-08-08T21:26:34.769Z,13.23
2022-08-08T21:29:03.498Z,13.16
2022-08-08T21:31:58.899Z,12.93
2022-08-08T21:34:21.385Z,12.94
2022-08-08T21:36:53.979Z,13.04
2022-08-08T21:39:41.558Z,13.16
2022-08-08T21:42:14.464Z,13.15
2022-08-08T21:44:59.148Z,13.00
2022-08-08T21:48:05.751Z,12.74
2022-08-08T21:50:21.506Z,12.69
2022-08-08T21:54:27.358Z,12.79
2022-08-08T21:56:24.538Z,12.79
2022-08-08T21:58:37.258Z,12.77
2022-08-08T22:01:06.971Z,12.67
2022-08-08T22:03:55.584Z,12.80
2022-08-08T22:06:29.468Z,12.81
2022-08-08T22:09:02.798Z,12.87
2022-08-08T22:11:59.199Z,12.91
2022-08-08T22:14:29.023Z,12.95
2022-08-08T22:17:01.210Z,12.93
2022-08-08T22:20:13.045Z,12.84
2022-08-08T22:22:19.870Z,12.76
2022-08-08T22:24:57.426Z,12.78
2022-08-08T22:27:55.989Z,12.41
2022-08-08T22:30:16.389Z,12.38
2022-08-08T22:32:58.543Z,12.47
2022-08-08T22:36:04.863Z,12.10
2022-08-08T22:38:17.436Z,12.26
2022-08-08T22:40:48.933Z,12.26
2022-08-08T22:43:18.166Z,12.27
2022-08-08T22:45:52.762Z,12.34
2022-08-08T22:48:22.564Z,12.39
2022-08-08T22:50:53.791Z,12.29
2022-08-08T22:54:33.440Z,12.32
2022-08-08T22:56:11.729Z,12.24
2022-08-08T22:58:42.734Z,12.24
2022-08-08T23:01:16.827Z,12.26
2022-08-08T23:04:03.543Z,12.32
2022-08-08T23:06:33.979Z,12.35
2022-08-08T23:09:02.609Z,12.33
2022-08-08T23:12:28.967Z,12.19
2022-08-08T23:14:26.968Z,12.10
2022-08-08T23:16:59.683Z,12.14
2022-08-08T23:19:30.885Z,12.04
2022-08-08T23:22:04.367Z,11.92
2022-08-08T23:24:36.638Z,12.05
2022-08-08T23:27:11.185Z,12.14
2022-08-08T23:29:55.064Z,12.18
2022-08-08T23:32:26.570Z,12.17
2022-08-08T23:34:58.840Z,11.91
2022-08-08T23:38:00.879Z,11.73
2022-08-08T23:40:22.208Z,11.77
2022-08-08T23:42:51.693Z,11.72
2022-08-08T23:49:03.342Z,11.57
2022-08-08T23:49:05.981Z,11.69
2022-08-08T23:50:59.656Z,11.37
2022-08-08T23:54:05.517Z,11.45
2022-08-08T23:56:31.768Z,11.46
2022-08-08T23:59:02.292Z,11.41
